createdAt,value
2022-09-26T15:24:43.893Z,95.62
2022-09-26T15:25:43.899Z,95.62
2022-09-26T15:26:43.867Z,95.93
2022-09-26T15:27:46.125Z,95.62
2022-09-26T15:28:43.807Z,95.52
2022-09-26T15:29:43.798Z,94.50
2022-09-26T15:30:43.850Z,94.30
2022-09-26T15:31:43.917Z,94.60
2022-09-26T15:32:43.802Z,95.12
2022-09-26T15:33:43.762Z,95.21
2022-09-26T15:34:43.738Z,94.81
2022-09-26T15:35:43.826Z,94.71
2022-09-26T15:36:43.731Z,95.32
2022-09-26T15:37:43.713Z,95.52
2022-09-26T15:38:47.068Z,94.81
2022-09-26T15:39:43.677Z,95.62
2022-09-26T15:40:43.860Z,96.54
2022-09-26T15:41:43.653Z,96.09
2022-09-26T15:42:43.649Z,96.19
2022-09-26T15:43:43.633Z,95.83
2022-09-26T15:44:43.626Z,95.21
2022-09-26T15:45:43.617Z,95.12
2022-09-26T15:46:43.749Z,95.32
2022-09-26T15:47:43.599Z,95.21
2022-09-26T15:48:43.587Z,95.52
2022-09-26T15:49:43.586Z,94.71
2022-09-26T15:50:43.583Z,94.50
2022-09-26T15:51:43.570Z,95.52
2022-09-26T15:52:43.550Z,93.89
2022-09-26T15:53:43.526Z,93.69
2022-09-26T15:54:43.533Z,93.89
2022-09-26T15:55:43.520Z,94.55
2022-09-26T15:56:43.528Z,94.91
2022-09-26T15:57:43.520Z,95.12
2022-09-26T15:58:43.543Z,95.16
2022-09-26T15:59:43.483Z,95.42
2022-09-26T16:00:43.470Z,96.08
2022-09-26T16:01:43.626Z,95.32
2022-09-26T16:02:43.553Z,95.67
2022-09-26T16:03:43.472Z,95.47
2022-09-26T16:04:43.403Z,96.08
2022-09-26T16:05:43.436Z,95.97
2022-09-26T16:06:43.454Z,95.47
2022-09-26T16:07:43.388Z,96.08
2022-09-26T16:08:43.393Z,95.97
2022-09-26T16:09:43.419Z,95.57
2022-09-26T16:10:43.410Z,96.38
2022-09-26T16:11:43.324Z,96.38
2022-09-26T16:12:43.389Z,97.09
2022-09-26T16:13:43.305Z,97.20
2022-09-26T16:14:43.326Z,96.89
2022-09-26T16:15:43.438Z,97.20
2022-09-26T16:16:43.378Z,96.08
2022-09-26T16:17:46.825Z,96.38
2022-09-26T16:18:44.266Z,96.89
2022-09-26T16:19:43.270Z,96.79
2022-09-26T16:20:43.234Z,96.69
2022-09-26T16:21:43.242Z,97.14
2022-09-26T16:22:43.295Z,96.18
2022-09-26T16:23:43.249Z,95.51
2022-09-26T16:24:43.243Z,96.53
2022-09-26T16:25:43.179Z,95.92
2022-09-26T16:26:43.258Z,96.43
2022-09-26T16:27:43.193Z,96.12
2022-09-26T16:28:43.181Z,96.22
2022-09-26T16:29:43.200Z,96.22
2022-09-26T16:30:43.259Z,96.89
2022-09-26T16:31:43.216Z,96.12
2022-09-26T16:32:43.176Z,95.51
2022-09-26T16:33:43.143Z,95.72
2022-09-26T16:34:43.093Z,96.12
2022-09-26T16:35:43.106Z,96.33
2022-09-26T16:36:43.108Z,95.65
2022-09-26T16:37:43.087Z,95.81
2022-09-26T16:38:43.115Z,95.81
2022-09-26T16:39:43.035Z,96.17
2022-09-26T16:40:43.070Z,95.81
2022-09-26T16:42:00.749Z,96.22
2022-09-26T16:42:44.071Z,96.02
2022-09-26T16:43:43.041Z,95.15
2022-09-26T16:44:43.003Z,94.94
2022-09-26T16:45:42.950Z,95.00
2022-09-26T16:46:43.223Z,94.70
2022-09-26T16:47:43.023Z,95.81
2022-09-26T16:48:42.973Z,95.72
2022-09-26T16:49:43.037Z,94.43
2022-09-26T16:50:42.914Z,94.59
2022-09-26T16:51:43.075Z,95.10
2022-09-26T16:52:42.920Z,94.38
2022-09-26T16:53:42.947Z,95.31
2022-09-26T16:54:42.968Z,94.43
2022-09-26T16:55:42.908Z,94.59
2022-09-26T16:56:42.876Z,94.38
2022-09-26T16:57:42.938Z,94.12
2022-09-26T16:58:42.833Z,93.92
2022-09-26T16:59:42.803Z,94.43
2022-09-26T17:00:42.884Z,94.49
2022-09-26T17:01:42.971Z,95.20
2022-09-26T17:02:54.226Z,94.84
2022-09-26T17:03:42.782Z,95.04
2022-09-26T17:04:42.888Z,95.00
2022-09-26T17:05:42.841Z,95.31
2022-09-26T17:06:43.588Z,95.65
2022-09-26T17:07:42.724Z,95.45
2022-09-26T17:08:42.722Z,95.65
2022-09-26T17:09:42.756Z,95.65
2022-09-26T17:10:42.759Z,95.56
2022-09-26T17:11:42.727Z,94.84
2022-09-26T17:12:42.678Z,94.12
2022-09-26T17:13:42.703Z,94.02
2022-09-26T17:14:42.678Z,94.27
2022-09-26T17:15:42.722Z,94.43
2022-09-26T17:16:42.636Z,95.04
2022-09-26T17:17:42.680Z,94.94
2022-09-26T17:18:42.647Z,95.56
2022-09-26T17:19:42.592Z,95.86
2022-09-26T17:20:42.614Z,95.96
2022-09-26T17:21:42.619Z,95.45
2022-09-26T17:22:42.623Z,95.56
2022-09-26T17:23:42.783Z,95.76
2022-09-26T17:24:42.549Z,96.11
2022-09-26T17:25:42.570Z,95.60
2022-09-26T17:26:42.557Z,95.50
2022-09-26T17:27:42.545Z,95.86
2022-09-26T17:28:42.529Z,95.86
2022-09-26T17:29:42.505Z,95.60
2022-09-26T17:30:42.522Z,95.50
2022-09-26T17:31:42.702Z,95.70
2022-09-26T17:32:42.461Z,95.86
2022-09-26T17:33:42.449Z,96.21
2022-09-26T17:34:42.529Z,96.51
2022-09-26T17:35:42.445Z,96.51
2022-09-26T17:36:42.445Z,96.42
2022-09-26T17:37:42.433Z,96.21
2022-09-26T17:38:42.384Z,97.03
2022-09-26T17:39:42.391Z,97.44
2022-09-26T17:40:42.413Z,97.24
2022-09-26T17:41:42.380Z,96.92
2022-09-26T17:42:42.399Z,97.33
2022-09-26T17:43:42.368Z,97.13
2022-09-26T17:44:42.329Z,97.08
2022-09-26T17:45:42.364Z,97.44
2022-09-26T17:46:42.468Z,96.72
2022-09-26T17:47:53.649Z,97.24
2022-09-26T17:48:42.395Z,97.74
2022-09-26T17:49:42.268Z,97.64
2022-09-26T17:50:42.287Z,97.74
2022-09-26T17:51:42.266Z,97.54
2022-09-26T17:52:42.276Z,97.54
2022-09-26T17:53:46.158Z,97.54
2022-09-26T17:54:43.227Z,97.64
2022-09-26T17:55:42.219Z,97.85
2022-09-26T17:56:42.224Z,97.24
2022-09-26T17:57:42.216Z,97.24
2022-09-26T17:58:42.176Z,97.95
2022-09-26T17:59:42.174Z,97.64
2022-09-26T18:00:42.148Z,97.85
2022-09-26T18:01:42.265Z,98.05
2022-09-26T18:02:42.199Z,98.15
2022-09-26T18:03:42.151Z,97.54
2022-09-26T18:04:42.124Z,97.95
2022-09-26T18:05:42.118Z,98.05
2022-09-26T18:06:42.104Z,97.85
2022-09-26T18:07:42.123Z,97.85
2022-09-26T18:08:42.116Z,97.85
2022-09-26T18:09:42.143Z,97.95
2022-09-26T18:10:42.039Z,98.10
2022-09-26T18:11:42.020Z,98.66
2022-09-26T18:12:42.033Z,98.77
2022-09-26T18:13:42.076Z,98.56
2022-09-26T18:14:42.069Z,98.46
2022-09-26T18:15:42.079Z,98.36
2022-09-26T18:16:42.012Z,98.25
2022-09-26T18:17:42.048Z,98.25
2022-09-26T18:18:42.001Z,98.56
2022-09-26T18:19:41.963Z,98.46
2022-09-26T18:20:41.960Z,98.77
2022-09-26T18:21:41.967Z,98.56
2022-09-26T18:22:41.938Z,98.25
2022-09-26T18:23:41.929Z,98.30
2022-09-26T18:24:41.900Z,98.25
2022-09-26T18:25:41.884Z,98.56
2022-09-26T18:26:41.916Z,98.46
2022-09-26T18:27:41.885Z,98.77
2022-09-26T18:28:41.834Z,98.36
2022-09-26T18:29:41.924Z,99.07
2022-09-26T18:30:41.897Z,98.36
2022-09-26T18:31:41.874Z,98.56
2022-09-26T18:32:41.820Z,98.56
2022-09-26T18:33:41.817Z,98.77
2022-09-26T18:34:41.800Z,98.97
2022-09-26T18:35:41.788Z,98.56
2022-09-26T18:36:41.768Z,98.97
2022-09-26T18:37:41.748Z,98.86
2022-09-26T18:38:41.754Z,98.86
2022-09-26T18:39:41.726Z,99.48
2022-09-26T18:40:41.867Z,99.38
2022-09-26T18:41:41.738Z,99.07
2022-09-26T18:42:41.687Z,99.38
2022-09-26T18:43:41.737Z,99.18
2022-09-26T18:44:41.674Z,99.07
2022-09-26T18:45:41.669Z,99.18
2022-09-26T18:46:41.805Z,98.97
2022-09-26T18:47:41.664Z,99.43
2022-09-26T18:48:41.628Z,98.97
2022-09-26T18:49:41.622Z,99.07
2022-09-26T18:50:41.612Z,99.27
2022-09-26T18:51:41.606Z,99.18
2022-09-26T18:52:41.566Z,99.18
2022-09-26T18:53:41.562Z,99.48
2022-09-26T18:54:41.602Z,98.46
2022-09-26T18:55:41.565Z,98.36
2022-09-26T18:56:41.531Z,99.07
2022-09-26T18:57:41.544Z,99.07
2022-09-26T18:58:41.594Z,99.27
2022-09-26T18:59:41.499Z,99.18
2022-09-26T19:00:41.493Z,99.18
2022-09-26T19:01:41.717Z,98.46
2022-09-26T19:02:41.629Z,98.77
2022-09-26T19:03:41.533Z,98.36
2022-09-26T19:04:41.480Z,99.27
2022-09-26T19:05:41.450Z,99.48
2022-09-26T19:06:41.426Z,99.18
2022-09-26T19:07:41.425Z,99.18
2022-09-26T19:08:41.483Z,98.97
2022-09-26T19:09:41.413Z,99.38
2022-09-26T19:10:41.436Z,99.38
2022-09-26T19:11:41.435Z,99.18
2022-09-26T19:12:41.386Z,99.38
2022-09-26T19:13:41.405Z,99.73
2022-09-26T19:14:41.392Z,99.68
2022-09-26T19:15:41.372Z,99.99
2022-09-26T19:16:41.352Z,99.79
2022-09-26T19:17:41.331Z,99.79
2022-09-26T19:18:41.316Z,99.58
2022-09-26T19:19:41.303Z,99.58
2022-09-26T19:20:41.432Z,99.58
2022-09-26T19:21:41.297Z,99.79
2022-09-26T19:22:41.244Z,99.79
2022-09-26T19:23:41.405Z,99.58
2022-09-26T19:24:41.238Z,99.79
2022-09-26T19:25:41.342Z,99.58
2022-09-26T19:26:41.298Z,99.99
2022-09-26T19:27:41.233Z,99.68
2022-09-26T19:28:41.356Z,99.89
2022-09-26T19:29:41.444Z,99.58
2022-09-26T19:30:41.303Z,99.58
2022-09-26T19:31:41.556Z,99.07
2022-09-26T19:32:41.187Z,99.07
2022-09-26T19:33:41.399Z,98.97
2022-09-26T19:34:41.284Z,99.18
2022-09-26T19:35:41.127Z,99.07
2022-09-26T19:36:41.211Z,99.07
2022-09-26T19:37:41.212Z,99.64
2022-09-26T19:38:41.150Z,99.38
2022-09-26T19:39:41.179Z,99.79
2022-09-26T19:40:43.818Z,99.48
2022-09-26T19:41:41.499Z,99.38
2022-09-26T19:42:41.652Z,99.89
2022-09-26T19:43:41.436Z,99.79
2022-09-26T19:44:41.090Z,99.99
2022-09-26T19:45:41.097Z,99.99
2022-09-26T19:46:41.050Z,99.99
2022-09-26T19:47:41.030Z,99.99
2022-09-26T19:48:40.967Z,99.99
2022-09-26T19:49:40.965Z,99.99
2022-09-26T19:50:40.955Z,99.99
2022-09-26T19:51:40.971Z,99.99
2022-09-26T19:52:40.944Z,99.99
2022-09-26T19:53:40.928Z,99.93
2022-09-26T19:54:40.903Z,99.99
2022-09-26T19:55:40.910Z,99.99
2022-09-26T19:56:40.925Z,99.99
2022-09-26T19:57:40.953Z,99.99
2022-09-26T19:58:40.857Z,99.99
2022-09-26T19:59:40.925Z,99.99
2022-09-26T20:00:40.942Z,99.99
2022-09-26T20:01:40.916Z,99.99
2022-09-26T20:02:40.864Z,99.99
2022-09-26T20:03:40.804Z,99.99
2022-09-26T20:04:40.824Z,99.99
2022-09-26T20:05:40.812Z,99.99
2022-09-26T20:06:40.871Z,99.99
2022-09-26T20:07:40.795Z,99.99
2022-09-26T20:08:40.747Z,99.99
2022-09-26T20:09:40.756Z,99.99
2022-09-26T20:10:40.749Z,99.99
2022-09-26T20:11:40.748Z,99.99
2022-09-26T20:12:40.713Z,99.99
2022-09-26T20:13:40.744Z,99.99
2022-09-26T20:14:40.735Z,99.99
2022-09-26T20:15:40.725Z,99.99
2022-09-26T20:16:40.755Z,99.99
2022-09-26T20:17:40.652Z,99.99
2022-09-26T20:18:40.709Z,99.99
2022-09-26T20:19:40.644Z,99.99
2022-09-26T20:20:40.653Z,99.99
2022-09-26T20:21:40.662Z,99.99
2022-09-26T20:22:40.590Z,99.99
2022-09-26T20:23:40.691Z,99.99
2022-09-26T20:24:40.607Z,99.99
2022-09-26T20:25:40.697Z,99.99
2022-09-26T20:26:40.552Z,99.99
2022-09-26T20:27:40.558Z,99.99
2022-09-26T20:28:40.600Z,99.99
2022-09-26T20:29:40.523Z,99.99
2022-09-26T20:30:40.642Z,99.99
2022-09-26T20:31:40.542Z,99.99
2022-09-26T20:32:40.602Z,99.99
2022-09-26T20:33:40.528Z,99.99
2022-09-26T20:34:40.533Z,99.99
2022-09-26T20:35:40.546Z,99.99
2022-09-26T20:36:40.463Z,99.99
2022-09-26T20:37:40.477Z,99.99
2022-09-26T20:38:40.657Z,99.99
2022-09-26T20:39:40.434Z,99.99
2022-09-26T20:40:40.543Z,99.99
2022-09-26T20:41:41.083Z,99.99
2022-09-26T20:42:40.480Z,99.99
2022-09-26T20:43:40.428Z,99.99
2022-09-26T20:44:40.368Z,99.99
2022-09-26T20:45:40.411Z,99.99
2022-09-26T20:46:42.133Z,99.99
2022-09-26T20:47:40.325Z,99.99
2022-09-26T20:48:40.330Z,99.99
2022-09-26T20:49:40.305Z,99.99
2022-09-26T20:50:40.293Z,99.99
2022-09-26T20:51:41.137Z,99.99
2022-09-26T20:52:41.073Z,99.99
2022-09-26T20:53:40.270Z,99.99
2022-09-26T20:54:40.345Z,99.99
2022-09-26T20:55:44.023Z,99.99
2022-09-26T20:56:40.286Z,99.99
2022-09-26T20:57:40.294Z,99.99
2022-09-26T20:58:40.211Z,99.99
2022-09-26T20:59:40.238Z,99.99
2022-09-26T21:00:40.185Z,99.99
